createdAt,value
2022-11-16T00:00:32.818Z,99446.41
2022-11-16T00:03:23.107Z,99438.09
2022-11-16T00:06:12.265Z,99426.88
2022-11-16T00:09:19.472Z,99436.59
2022-11-16T00:12:11.157Z,99440.41
2022-11-16T00:14:58.772Z,99430.84
2022-11-16T00:17:46.587Z,99428.56
2022-11-16T00:20:35.586Z,99430.28
2022-11-16T00:23:23.797Z,99431.47
2022-11-16T00:26:13.506Z,99424.34
2022-11-16T00:29:01.331Z,99422.06
2022-11-16T00:31:49.613Z,99421.78
2022-11-16T00:34:37.164Z,99417.72
2022-11-16T00:37:26.329Z,99418.59
2022-11-16T00:40:14.335Z,99414.78
2022-11-16T00:43:02.140Z,99411.16
2022-11-16T00:45:50.024Z,99406.13
2022-11-16T00:48:37.993Z,99404.66
2022-11-16T00:51:25.865Z,99402.81
2022-11-16T00:54:15.686Z,99403.75
2022-11-16T00:57:03.580Z,99401.75
2022-11-16T00:59:51.924Z,99390.84
2022-11-16T01:02:40.868Z,99397.19
2022-11-16T01:05:28.918Z,99387.97
2022-11-16T01:08:16.677Z,99384.09
2022-11-16T01:11:19.976Z,99388.25
2022-11-16T01:14:10.557Z,99385.88
2022-11-16T01:16:58.334Z,99389.31
2022-11-16T01:19:46.335Z,99376.44
2022-11-16T01:22:36.104Z,99382.34
2022-11-16T01:25:27.157Z,99372.38
2022-11-16T01:28:16.346Z,99369.59
2022-11-16T01:31:10.735Z,99367.13
2022-11-16T01:33:58.892Z,99368.31
2022-11-16T01:36:49.874Z,99366.19
2022-11-16T01:39:39.280Z,99360.97
2022-11-16T01:42:30.373Z,99357.56
2022-11-16T01:45:27.389Z,99354.09
2022-11-16T01:48:21.989Z,99348.94
2022-11-16T01:51:11.082Z,99343.34
2022-11-16T01:54:01.864Z,99347.56
2022-11-16T01:56:51.883Z,99347.91
2022-11-16T01:59:51.236Z,99339.34
2022-11-16T02:02:43.308Z,99340.41
2022-11-16T02:05:54.735Z,99328.00
2022-11-16T02:09:14.032Z,99322.91
2022-11-16T02:12:24.746Z,99322.03
2022-11-16T02:15:20.171Z,99324.56
2022-11-16T02:18:28.575Z,99327.34
2022-11-16T02:21:33.388Z,99319.84
2022-11-16T02:24:43.935Z,99324.09
2022-11-16T02:27:51.065Z,99326.81
2022-11-16T02:30:45.953Z,99311.16
2022-11-16T02:33:38.645Z,99313.84
2022-11-16T02:36:27.642Z,99316.47
2022-11-16T02:39:20.916Z,99306.06
2022-11-16T02:42:14.935Z,99304.00
2022-11-16T02:45:06.753Z,99300.00
2022-11-16T02:48:02.982Z,99291.84
2022-11-16T02:50:53.615Z,99287.88
2022-11-16T02:53:51.919Z,99293.56
2022-11-16T02:56:48.756Z,99295.53
2022-11-16T02:59:43.943Z,99283.09
2022-11-16T03:02:38.556Z,99281.59
2022-11-16T03:05:33.240Z,99264.28
2022-11-16T03:08:29.471Z,99286.50
2022-11-16T03:11:37.240Z,99280.00
2022-11-16T03:14:30.828Z,99291.03
2022-11-16T03:17:26.664Z,99285.38
2022-11-16T03:20:17.367Z,99290.66
2022-11-16T03:23:09.858Z,99282.31
2022-11-16T03:25:59.602Z,99283.94
2022-11-16T03:28:53.692Z,99280.00
2022-11-16T03:31:49.070Z,99278.53
2022-11-16T03:34:42.973Z,99282.47
2022-11-16T03:37:32.332Z,99279.09
2022-11-16T03:40:24.490Z,99275.16
2022-11-16T03:43:13.474Z,99271.38
2022-11-16T03:46:01.783Z,99270.56
2022-11-16T03:48:49.965Z,99271.44
2022-11-16T03:51:44.731Z,99263.91
2022-11-16T03:54:32.954Z,99269.72
2022-11-16T03:57:23.049Z,99265.31
2022-11-16T04:00:15.863Z,99261.31
2022-11-16T04:03:04.980Z,99251.50
2022-11-16T04:06:11.443Z,99264.72
2022-11-16T04:09:16.851Z,99269.53
2022-11-16T04:12:22.524Z,99253.38
2022-11-16T04:15:29.838Z,99254.53
2022-11-16T04:18:36.313Z,99262.59
2022-11-16T04:21:54.433Z,99244.97
2022-11-16T04:24:50.296Z,99247.75
2022-11-16T04:27:56.144Z,99248.09
2022-11-16T04:31:05.103Z,99265.31
2022-11-16T04:34:17.732Z,99260.50
2022-11-16T04:37:28.405Z,99257.13
2022-11-16T04:40:17.560Z,99260.16
2022-11-16T04:43:06.216Z,99266.59
2022-11-16T04:46:16.934Z,99268.88
2022-11-16T04:49:04.659Z,99260.50
2022-11-16T04:51:52.552Z,99267.22
2022-11-16T04:54:40.847Z,99255.03
2022-11-16T04:57:29.891Z,99263.16
2022-11-16T05:00:19.397Z,99258.84
2022-11-16T05:03:08.225Z,99252.91
2022-11-16T05:05:56.433Z,99258.34
2022-11-16T05:08:44.229Z,99253.38
2022-11-16T05:11:32.083Z,99256.38
2022-11-16T05:14:20.434Z,99247.06
2022-11-16T05:17:09.536Z,99237.94
2022-11-16T05:20:15.894Z,99246.03
2022-11-16T05:23:29.896Z,99248.38
2022-11-16T05:26:21.427Z,99251.31
2022-11-16T05:29:09.708Z,99251.03
2022-11-16T05:31:57.662Z,99244.59
2022-11-16T05:34:47.945Z,99250.09
2022-11-16T05:37:37.571Z,99246.69
2022-11-16T05:40:26.408Z,99252.38
2022-11-16T05:43:18.936Z,99245.91
2022-11-16T05:46:17.385Z,99245.66
2022-11-16T05:49:08.249Z,99249.72
2022-11-16T05:51:57.768Z,99237.13
2022-11-16T05:54:47.024Z,99244.31
2022-11-16T05:57:34.732Z,99253.03
2022-11-16T06:00:22.825Z,99247.81
2022-11-16T06:03:13.050Z,99258.69
2022-11-16T06:06:01.858Z,99260.94
2022-11-16T06:08:51.174Z,99255.09
2022-11-16T06:11:45.507Z,99266.31
2022-11-16T06:14:33.682Z,99264.81
2022-11-16T06:17:21.431Z,99265.63
2022-11-16T06:20:10.262Z,99261.25
2022-11-16T06:22:59.055Z,99253.31
2022-11-16T06:25:47.789Z,99264.44
2022-11-16T06:28:37.891Z,99278.88
2022-11-16T06:31:25.639Z,99281.38
2022-11-16T06:34:15.477Z,99285.00
2022-11-16T06:37:03.232Z,99277.91
2022-11-16T06:39:50.852Z,99286.88
2022-11-16T06:42:38.684Z,99285.59
2022-11-16T06:45:28.920Z,99287.88
2022-11-16T06:48:20.521Z,99290.59
2022-11-16T06:51:08.886Z,99284.66
2022-11-16T06:53:57.042Z,99296.19
2022-11-16T06:56:45.307Z,99295.13
2022-11-16T06:59:33.108Z,99305.38
2022-11-16T07:02:23.369Z,99305.56
2022-11-16T07:05:11.387Z,99310.78
2022-11-16T07:08:00.772Z,99307.00
2022-11-16T07:10:48.536Z,99314.97
2022-11-16T07:13:37.335Z,99317.50
2022-11-16T07:16:25.976Z,99324.56
2022-11-16T07:19:19.640Z,99322.06
2022-11-16T07:22:07.415Z,99327.84
2022-11-16T07:24:55.256Z,99328.91
2022-11-16T07:27:44.210Z,99329.75
2022-11-16T07:30:32.676Z,99326.00
2022-11-16T07:33:27.448Z,99335.44
2022-11-16T07:36:40.673Z,99334.63
2022-11-16T07:39:29.435Z,99341.69
2022-11-16T07:42:17.848Z,99329.16
2022-11-16T07:45:26.512Z,99338.41
2022-11-16T07:48:18.894Z,99351.31
2022-11-16T07:51:27.030Z,99353.88
2022-11-16T07:54:32.690Z,99346.22
2022-11-16T07:57:20.701Z,99347.88
2022-11-16T08:00:10.656Z,99355.91
2022-11-16T08:03:11.405Z,99356.78
2022-11-16T08:06:01.465Z,99360.53
2022-11-16T08:08:56.700Z,99355.59
2022-11-16T08:11:48.695Z,99365.16
2022-11-16T08:14:36.580Z,99363.38
2022-11-16T08:17:24.493Z,99368.75
2022-11-16T08:20:13.771Z,99368.97
2022-11-16T08:23:03.063Z,99379.19
2022-11-16T08:25:58.996Z,99385.09
2022-11-16T08:28:54.045Z,99377.72
2022-11-16T08:31:46.302Z,99383.63
2022-11-16T08:34:38.155Z,99386.53
2022-11-16T08:37:28.335Z,99382.09
2022-11-16T08:40:16.777Z,99393.69
2022-11-16T08:43:04.707Z,99380.06
2022-11-16T08:45:54.875Z,99387.59
2022-11-16T08:48:43.597Z,99384.88
2022-11-16T08:51:31.515Z,99388.63
2022-11-16T08:54:24.519Z,99389.69
2022-11-16T08:57:12.465Z,99389.25
2022-11-16T09:00:02.298Z,99374.25
2022-11-16T09:02:51.547Z,99385.06
2022-11-16T09:05:40.435Z,99389.97
2022-11-16T09:08:28.007Z,99388.69
2022-11-16T09:11:18.354Z,99384.06
2022-11-16T09:14:06.118Z,99384.06
2022-11-16T09:16:54.008Z,99382.22
2022-11-16T09:19:43.572Z,99381.28
2022-11-16T09:22:31.683Z,99386.78
2022-11-16T09:25:19.594Z,99391.16
2022-11-16T09:28:07.849Z,99391.34
2022-11-16T09:30:55.285Z,99394.66
2022-11-16T09:33:43.210Z,99394.97
2022-11-16T09:36:32.558Z,99408.00
2022-11-16T09:39:31.030Z,99403.53
2022-11-16T09:42:38.121Z,99404.88
2022-11-16T09:45:34.377Z,99406.25
2022-11-16T09:48:24.068Z,99410.31
2022-11-16T09:51:17.056Z,99406.44
2022-11-16T09:54:10.067Z,99411.66
2022-11-16T09:57:02.025Z,99409.09
2022-11-16T09:59:53.356Z,99401.25
2022-11-16T10:02:46.576Z,99413.63
2022-11-16T10:05:40.421Z,99408.38
2022-11-16T10:08:37.010Z,99410.50
2022-11-16T10:11:45.479Z,99414.06
2022-11-16T10:15:18.964Z,99424.34
2022-11-16T10:18:23.637Z,99420.66
2022-11-16T10:21:25.046Z,99418.09
2022-11-16T10:24:41.149Z,99415.53
2022-11-16T10:27:47.845Z,99406.31
2022-11-16T10:30:41.748Z,99410.00
2022-11-16T10:33:36.328Z,99404.94
2022-11-16T10:36:27.691Z,99399.94
2022-11-16T10:39:18.328Z,99415.25
2022-11-16T10:42:11.626Z,99403.44
2022-11-16T10:45:09.665Z,99406.38
2022-11-16T10:48:03.306Z,99404.47
2022-11-16T10:50:53.328Z,99400.84
2022-11-16T10:53:43.996Z,99395.69
2022-11-16T10:56:37.444Z,99387.50
2022-11-16T10:59:40.414Z,99387.81
2022-11-16T11:02:34.841Z,99398.50
2022-11-16T11:05:23.066Z,99396.28
2022-11-16T11:08:12.789Z,99387.03
2022-11-16T11:11:23.095Z,99394.31
2022-11-16T11:14:13.320Z,99396.50
2022-11-16T11:17:12.629Z,99394.75
2022-11-16T11:20:05.771Z,99392.66
2022-11-16T11:22:57.202Z,99405.31
2022-11-16T11:25:52.744Z,99401.97
2022-11-16T11:28:49.395Z,99402.03
2022-11-16T11:31:44.009Z,99397.56
2022-11-16T11:34:34.731Z,99396.53
2022-11-16T11:37:27.557Z,99395.78
2022-11-16T11:40:21.212Z,99399.25
2022-11-16T11:43:23.738Z,99395.19
2022-11-16T11:46:19.629Z,99392.19
2022-11-16T11:49:14.656Z,99393.69
2022-11-16T11:52:10.483Z,99382.75
2022-11-16T11:54:59.963Z,99389.47
2022-11-16T11:57:50.956Z,99385.53
2022-11-16T12:00:48.515Z,99387.59
2022-11-16T12:03:56.672Z,99384.53
2022-11-16T12:06:52.946Z,99383.84
2022-11-16T12:09:47.883Z,99380.88
2022-11-16T12:12:48.851Z,99376.97
2022-11-16T12:15:59.203Z,99374.94
2022-11-16T12:19:10.047Z,99371.94
2022-11-16T12:22:11.212Z,99373.59
2022-11-16T12:25:09.376Z,99382.75
2022-11-16T12:28:12.925Z,99373.47
2022-11-16T12:31:20.370Z,99370.13
2022-11-16T12:34:17.244Z,99373.00
2022-11-16T12:37:13.574Z,99375.72
2022-11-16T12:40:32.192Z,99373.13
2022-11-16T12:43:29.679Z,99372.38
2022-11-16T12:46:27.100Z,99376.00
2022-11-16T12:49:42.100Z,99369.56
2022-11-16T12:52:47.448Z,99367.16
2022-11-16T12:55:42.236Z,99360.41
2022-11-16T12:58:47.951Z,99366.84
2022-11-16T13:01:41.034Z,99355.44
2022-11-16T13:04:33.729Z,99358.50
2022-11-16T13:07:26.343Z,99344.47
2022-11-16T13:10:19.574Z,99354.94
2022-11-16T13:13:35.449Z,99340.34
2022-11-16T13:16:26.596Z,99343.66
2022-11-16T13:19:17.346Z,99347.34
2022-11-16T13:22:13.961Z,99341.25
2022-11-16T13:25:07.777Z,99333.53
2022-11-16T13:28:06.594Z,99347.47
2022-11-16T13:31:03.214Z,99341.75
2022-11-16T13:33:56.999Z,99341.38
2022-11-16T13:36:47.919Z,99332.13
2022-11-16T13:40:22.618Z,99336.75
2022-11-16T13:43:19.175Z,99330.44
2022-11-16T13:46:06.901Z,99333.53
2022-11-16T13:48:55.889Z,99330.19
2022-11-16T13:51:53.135Z,99323.78
2022-11-16T13:54:45.869Z,99325.44
2022-11-16T13:57:35.975Z,99326.78
2022-11-16T14:00:27.666Z,99327.22
2022-11-16T14:03:30.965Z,99320.47
2022-11-16T14:07:00.524Z,99310.94
2022-11-16T14:09:50.109Z,99301.44
2022-11-16T14:12:59.438Z,99314.16
2022-11-16T14:15:47.090Z,99306.53
2022-11-16T14:18:37.515Z,99286.22
2022-11-16T14:21:40.913Z,99292.50
2022-11-16T14:24:35.366Z,99299.78
2022-11-16T14:27:31.060Z,99307.50
2022-11-16T14:30:24.408Z,99308.72
2022-11-16T14:33:24.706Z,99318.78
2022-11-16T14:36:12.864Z,99312.38
2022-11-16T14:39:16.718Z,99309.63
2022-11-16T14:42:15.968Z,99321.16
2022-11-16T14:45:06.376Z,99315.38
2022-11-16T14:47:59.786Z,99309.53
2022-11-16T14:51:03.847Z,99318.66
2022-11-16T14:53:56.109Z,99318.56
2022-11-16T14:56:57.546Z,99315.47
2022-11-16T14:59:46.890Z,99313.59
2022-11-16T15:02:35.758Z,99313.06
2022-11-16T15:05:28.630Z,99317.25
2022-11-16T15:08:20.532Z,99311.78
2022-11-16T15:11:14.533Z,99312.38
2022-11-16T15:14:02.282Z,99316.66
2022-11-16T15:16:53.302Z,99318.56
2022-11-16T15:19:41.165Z,99319.84
2022-11-16T15:22:31.023Z,99320.44
2022-11-16T15:25:27.952Z,99320.94
2022-11-16T15:28:18.137Z,99325.31
2022-11-16T15:31:09.573Z,99320.78
2022-11-16T15:33:58.786Z,99326.28
2022-11-16T15:36:47.705Z,99323.38
2022-11-16T15:39:37.427Z,99307.53
2022-11-16T15:42:27.190Z,99327.38
2022-11-16T15:45:23.578Z,99313.09
2022-11-16T15:48:23.188Z,99325.88
2022-11-16T15:51:17.971Z,99328.75
2022-11-16T15:54:16.190Z,99322.69
2022-11-16T15:57:09.674Z,99316.47
2022-11-16T15:59:58.332Z,99318.78
2022-11-16T16:02:46.329Z,99325.38
2022-11-16T16:05:35.675Z,99322.72
2022-11-16T16:08:32.016Z,99320.13
2022-11-16T16:11:29.686Z,99316.91
2022-11-16T16:14:26.204Z,99320.50
2022-11-16T16:17:23.966Z,99320.16
2022-11-16T16:20:20.136Z,99322.25
2022-11-16T16:23:10.425Z,99316.00
2022-11-16T16:26:05.017Z,99307.69
2022-11-16T16:28:53.225Z,99317.38
2022-11-16T16:31:40.996Z,99315.53
2022-11-16T16:34:28.848Z,99312.44
2022-11-16T16:37:16.502Z,99311.19
2022-11-16T16:40:04.940Z,99322.94
2022-11-16T16:42:54.294Z,99319.63
2022-11-16T16:45:44.001Z,99314.63
2022-11-16T16:48:31.887Z,99316.56
2022-11-16T16:51:19.375Z,99310.94
2022-11-16T16:54:07.619Z,99310.13
2022-11-16T16:56:56.053Z,99305.13
2022-11-16T16:59:48.509Z,99306.78
2022-11-16T17:02:38.033Z,99297.16
2022-11-16T17:05:26.452Z,99307.22
2022-11-16T17:08:14.258Z,99297.81
2022-11-16T17:11:02.112Z,99297.81
2022-11-16T17:13:49.956Z,99287.38
2022-11-16T17:16:39.252Z,99282.16
2022-11-16T17:19:27.188Z,99282.97
2022-11-16T17:22:15.225Z,99289.88
2022-11-16T17:25:04.229Z,99288.63
2022-11-16T17:27:52.054Z,99284.22
2022-11-16T17:30:39.895Z,99283.59
2022-11-16T17:33:29.112Z,99279.19
2022-11-16T17:36:18.034Z,99295.25
2022-11-16T17:39:06.317Z,99293.63
2022-11-16T17:41:54.083Z,99284.66
2022-11-16T17:44:42.021Z,99287.56
2022-11-16T17:47:32.705Z,99290.50
2022-11-16T17:50:21.790Z,99288.19
2022-11-16T17:53:09.353Z,99290.91
2022-11-16T17:55:57.192Z,99290.28
2022-11-16T17:58:45.542Z,99292.78
2022-11-16T18:01:34.114Z,99280.69
2022-11-16T18:04:22.632Z,99277.13
2022-11-16T18:07:11.978Z,99271.06
2022-11-16T18:10:00.418Z,99262.94
2022-11-16T18:12:48.269Z,99256.22
2022-11-16T18:15:41.912Z,99268.38
2022-11-16T18:18:30.206Z,99261.47
2022-11-16T18:21:20.693Z,99268.56
2022-11-16T18:24:11.107Z,99268.16
2022-11-16T18:26:59.492Z,99276.72
2022-11-16T18:29:48.353Z,99247.47
2022-11-16T18:32:36.792Z,99258.94
2022-11-16T18:35:25.489Z,99258.69
2022-11-16T18:38:14.367Z,99254.19
2022-11-16T18:41:14.773Z,99251.41
2022-11-16T18:44:04.299Z,99254.03
2022-11-16T18:46:53.130Z,99260.09
2022-11-16T18:49:41.992Z,99264.69
2022-11-16T18:52:33.278Z,99266.13
2022-11-16T18:55:22.053Z,99259.69
2022-11-16T18:58:35.815Z,99253.16
2022-11-16T19:01:23.709Z,99254.84
2022-11-16T19:04:13.164Z,99245.88
2022-11-16T19:07:02.385Z,99253.47
2022-11-16T19:09:51.050Z,99260.38
2022-11-16T19:12:39.907Z,99249.25
2022-11-16T19:15:30.282Z,99262.03
2022-11-16T19:18:22.223Z,99257.00
2022-11-16T19:21:13.685Z,99239.25
2022-11-16T19:24:02.682Z,99242.78
2022-11-16T19:26:51.766Z,99245.75
2022-11-16T19:29:40.203Z,99240.75
2022-11-16T19:32:32.555Z,99246.19
2022-11-16T19:35:21.807Z,99249.50
2022-11-16T19:38:10.832Z,99249.06
2022-11-16T19:40:59.914Z,99249.31
2022-11-16T19:43:48.602Z,99243.47
2022-11-16T19:46:37.627Z,99247.41
2022-11-16T19:49:28.155Z,99241.22
2022-11-16T19:52:16.862Z,99237.00
2022-11-16T19:55:06.347Z,99242.44
2022-11-16T19:57:55.837Z,99232.41
2022-11-16T20:00:45.048Z,99235.38
2022-11-16T20:03:34.365Z,99217.78
2022-11-16T20:06:26.925Z,99227.38
2022-11-16T20:09:15.750Z,99230.09
2022-11-16T20:12:04.396Z,99238.25
2022-11-16T20:14:53.359Z,99242.25
2022-11-16T20:17:41.889Z,99244.97
2022-11-16T20:20:34.020Z,99231.16
2022-11-16T20:23:32.166Z,99221.91
2022-11-16T20:26:23.887Z,99223.19
2022-11-16T20:29:15.337Z,99219.19
2022-11-16T20:32:04.357Z,99210.38
2022-11-16T20:34:52.921Z,99211.06
2022-11-16T20:37:41.290Z,99209.38
2022-11-16T20:40:30.683Z,99209.78
2022-11-16T20:43:19.917Z,99205.84
2022-11-16T20:46:08.205Z,99214.34
2022-11-16T20:48:57.402Z,99205.81
2022-11-16T20:51:47.110Z,99206.81
2022-11-16T20:54:35.513Z,99201.16
2022-11-16T20:57:25.221Z,99196.88
2022-11-16T21:00:14.493Z,99177.13
2022-11-16T21:03:02.036Z,99180.84
2022-11-16T21:05:52.892Z,99180.25
2022-11-16T21:08:41.749Z,99174.59
2022-11-16T21:11:51.396Z,99176.22
2022-11-16T21:14:39.142Z,99183.75
2022-11-16T21:17:26.643Z,99188.13
2022-11-16T21:20:27.460Z,99167.63
2022-11-16T21:23:15.820Z,99190.88
2022-11-16T21:26:04.545Z,99174.13
2022-11-16T21:28:53.000Z,99178.97
2022-11-16T21:31:42.202Z,99169.91
2022-11-16T21:34:33.590Z,99169.19
2022-11-16T21:37:25.371Z,99166.03
2022-11-16T21:40:13.845Z,99172.34
2022-11-16T21:43:01.516Z,99166.91
2022-11-16T21:45:49.856Z,99167.25
2022-11-16T21:48:39.570Z,99138.09
2022-11-16T21:51:28.201Z,99159.97
2022-11-16T21:54:15.901Z,99153.72
2022-11-16T21:57:03.630Z,99147.09
2022-11-16T21:59:51.408Z,99146.25
2022-11-16T22:02:39.082Z,99138.50
2022-11-16T22:05:50.561Z,99140.97
2022-11-16T22:08:38.174Z,99127.44
2022-11-16T22:11:25.590Z,99123.66
2022-11-16T22:14:13.331Z,99110.88
2022-11-16T22:17:01.840Z,99104.00
2022-11-16T22:19:49.923Z,99096.44
2022-11-16T22:22:38.937Z,99100.84
2022-11-16T22:25:27.002Z,99096.47
2022-11-16T22:28:20.574Z,99096.25
2022-11-16T22:31:11.283Z,99089.22
2022-11-16T22:33:58.917Z,99102.78
2022-11-16T22:36:46.796Z,99101.97
2022-11-16T22:39:36.863Z,99107.81
2022-11-16T22:42:24.369Z,99100.16
2022-11-16T22:45:12.262Z,99090.72
2022-11-16T22:48:00.105Z,99084.47
2022-11-16T22:50:47.879Z,99084.84
2022-11-16T22:53:36.178Z,99076.09
2022-11-16T22:56:25.951Z,99074.44
2022-11-16T22:59:13.801Z,99071.13
2022-11-16T23:02:05.223Z,99070.22
2022-11-16T23:04:53.024Z,99071.72
2022-11-16T23:07:43.994Z,99060.88
2022-11-16T23:10:51.909Z,99048.56
2022-11-16T23:13:58.320Z,99053.13
2022-11-16T23:16:46.964Z,99048.53
2022-11-16T23:19:52.449Z,99025.22
2022-11-16T23:22:57.937Z,99027.69
2022-11-16T23:26:03.078Z,99018.09
2022-11-16T23:28:52.652Z,99013.72
2022-11-16T23:31:40.748Z,99019.94
2022-11-16T23:34:28.196Z,99011.59
2022-11-16T23:37:15.991Z,99006.38
2022-11-16T23:40:03.854Z,99001.63
2022-11-16T23:43:10.908Z,98996.84
2022-11-16T23:45:59.893Z,98997.84
2022-11-16T23:48:47.448Z,98989.31
2022-11-16T23:51:35.215Z,98992.84
2022-11-16T23:54:22.985Z,98987.47
2022-11-16T23:57:10.946Z,98983.72
2022-11-16T23:59:58.840Z,98975.59
